Hauptseite
METAR-TAF:

METAR-TAF

Flughäfen :

Girona, Spanien

Flughafen Girona

Breite: 41-54N, Länge: 002-46E, Höhe: 143 m

Beobachtung

Neuester Wetterbericht von vor 19 Minuten, um 01:00 UTC
Wind 1 kt aus unterschiedlichen Richtungen
Temperatur 5°C
Luftfeuchtigkeit 93%
Luftdruck 1021 hPa
Sichtweite 10 km oder mehr
Leicht bewölkt in der Höhe von 3000 ft

METAR: LEGE 200100Z VRB01KT 9999 FEW030 05/04 Q1021

Zeit: 02:19 (01:19 UTC)

Prognose

Neuester Wetterbericht von vor 2 Stunden und 19 Minuten, um 23:00 UTC
Gültige Prognose vom 20 um 00 UTC bis 20 um 24 UTC
Wind 4 kt aus unterschiedlichen Richtungen
Sichtweite 10 km oder mehr
Leicht bewölkt in der Höhe von 3000 ft
Zeitweise
vom 20 um 00 UTC bis 20 um 12 UTC
Durchbrochene Bewölkung in der Höhe von 1800 ft

TAF: LEGE 192300Z 2000/2024 VRB04KT 9999 FEW030 TX16/2013Z TN05/2007Z TEMPO 2000/2012 BKN018

Wetterbeobachtungen und Prognosen von mehr als 4000 Flughäfen (METAR und TAF Bericht).

Die verfügbaren Stationen werden durch gelbe und rote Markierungen auf der Karte dargestellt.

Führen Sie die Maus auf sie, um den Namen der Station zu sehen.

Darauf klicken, um die Beobachtung von Wetterbeobachtungen und Prognosen zu sehen.

Um die Karte zu ändern : klicken Sie auf den grünen Tasten mit einem schwarzen Kreuz Zum Vergrößern, auf den grünen Button mit einem Gedankenstrich zu verkleinern, oder auf die grünen Pfeile für benachbarte Karten.


METAR-TAF: